Meadows Field Bakersfield US
ICAO: KBFL
IATA: BFL
Category: Medium
Scheduled Services: No

Elevation: 510 ft
TransAlt. 18000 ft.

Airport Communications:
BAKERSFIELD APP:118.8
ATIS:118.6
CTAF:118.1
BAKERSFIELD DEP:126.45
GND:121.7
RANCHO RDO:122.45
BAKERSFIELD TWR:118.1
UNICOM:122.95

KBFL Zoom In..

If you have problems with the map follow the link
https://www.worldairports.se/pages/airport.php?
ICAO=KBFL

Runways:

(A) RW 12L length 10855 ft width 150 ft
---- / hdg 121

(B) RW 12R length 7703 ft width 100 ft
---- / hdg 121

(C) RW 30L length 7703 ft width 100 ft
---- / hdg 301

(D) RW 30R length 10855 ft width 150 ft
ILS 111.90 / hdg 301

Location; KBFL
Day. 19 / Time. 01.54 Zulu
* Altimeter: 30.29
* Temperature: 08° c. 46.4°f.
* Wind from: 000° Speed 00 kn.
Dewpoint: 04° c.
Visibility: 6 Statute Miles.
Clouds: Overcast 1200 ft.
Conditions: Haze.

KBFL 190154Z 00000KT 6SM HZ OVC012 08/04 A3029 RMK AO2 SLP259 T00780044


Wind - Calm.

 
 
jpsmedia worldairports.se 2020   terms of use